sensor_id;sensor_type;location;lat;lon;timestamp;pressure;altitude;pressure_sealevel;temperature;humidity
75157;BME280;63736;50.076;8.198;2023-03-14T00:01:47;97594.88;;;9.87;100.00
75157;BME280;63736;50.076;8.198;2023-03-14T00:04:13;97602.53;;;9.90;100.00
75157;BME280;63736;50.076;8.198;2023-03-14T00:06:39;97620.19;;;9.91;100.00
75157;BME280;63736;50.076;8.198;2023-03-14T00:09:04;97618.34;;;9.92;100.00
75157;BME280;63736;50.076;8.198;2023-03-14T00:11:29;97613.19;;;9.90;100.00
75157;BME280;63736;50.076;8.198;2023-03-14T00:13:55;97603.38;;;9.91;100.00
75157;BME280;63736;50.076;8.198;2023-03-14T00:16:20;97609.72;;;9.90;100.00
75157;BME280;63736;50.076;8.198;2023-03-14T00:18:46;97611.69;;;9.88;100.00
75157;BME280;63736;50.076;8.198;2023-03-14T00:21:12;97620.56;;;9.88;100.00
75157;BME280;63736;50.076;8.198;2023-03-14T00:23:40;97619.69;;;9.88;100.00
75157;BME280;63736;50.076;8.198;2023-03-14T00:26:13;97613.53;;;9.87;100.00
75157;BME280;63736;50.076;8.198;2023-03-14T00:28:40;97618.88;;;9.87;100.00
75157;BME280;63736;50.076;8.198;2023-03-14T00:31:07;97606.53;;;9.86;100.00
75157;BME280;63736;50.076;8.198;2023-03-14T00:33:33;97604.06;;;9.85;100.00
75157;BME280;63736;50.076;8.198;2023-03-14T00:36:02;97589.72;;;9.86;100.00
75157;BME280;63736;50.076;8.198;2023-03-14T00:38:27;97584.22;;;9.87;100.00
75157;BME280;63736;50.076;8.198;2023-03-14T00:40:53;97569.88;;;9.88;100.00
75157;BME280;63736;50.076;8.198;2023-03-14T00:43:20;97567.03;;;9.90;100.00
75157;BME280;63736;50.076;8.198;2023-03-14T00:45:51;97563.38;;;9.91;100.00
75157;BME280;63736;50.076;8.198;2023-03-14T00:48:18;97564.19;;;9.91;100.00
75157;BME280;63736;50.076;8.198;2023-03-14T00:50:44;97549.84;;;9.92;100.00
75157;BME280;63736;50.076;8.198;2023-03-14T00:53:09;97549.00;;;9.92;100.00
75157;BME280;63736;50.076;8.198;2023-03-14T00:55:38;97551.53;;;9.94;100.00
75157;BME280;63736;50.076;8.198;2023-03-14T00:58:04;97561.34;;;9.93;100.00
75157;BME280;63736;50.076;8.198;2023-03-14T01:00:30;97552.53;;;9.92;100.00
75157;BME280;63736;50.076;8.198;2023-03-14T01:02:55;97561.53;;;9.91;100.00
75157;BME280;63736;50.076;8.198;2023-03-14T01:05:21;97567.84;;;9.90;100.00
75157;BME280;63736;50.076;8.198;2023-03-14T01:07:46;97571.53;;;9.89;100.00
75157;BME280;63736;50.076;8.198;2023-03-14T01:10:12;97566.03;;;9.91;100.00
75157;BME280;63736;50.076;8.198;2023-03-14T01:12:37;97568.53;;;9.92;100.00
75157;BME280;63736;50.076;8.198;2023-03-14T01:15:03;97562.19;;;9.94;100.00
75157;BME280;63736;50.076;8.198;2023-03-14T01:17:29;97562.19;;;9.94;100.00
75157;BME280;63736;50.076;8.198;2023-03-14T01:19:54;97561.16;;;9.95;100.00
75157;BME280;63736;50.076;8.198;2023-03-14T01:22:19;97560.34;;;9.94;100.00
75157;BME280;63736;50.076;8.198;2023-03-14T01:24:46;97562.00;;;9.95;100.00
75157;BME280;63736;50.076;8.198;2023-03-14T01:27:12;97552.16;;;9.96;100.00
75157;BME280;63736;50.076;8.198;2023-03-14T01:29:37;97557.69;;;9.94;100.00
75157;BME280;63736;50.076;8.198;2023-03-14T01:32:03;97548.00;;;9.93;100.00
75157;BME280;63736;50.076;8.198;2023-03-14T01:34:28;97543.53;;;9.94;100.00
75157;BME280;63736;50.076;8.198;2023-03-14T01:36:54;97545.34;;;9.93;100.00
75157;BME280;63736;50.076;8.198;2023-03-14T01:39:19;97533.84;;;9.92;100.00
75157;BME280;63736;50.076;8.198;2023-03-14T01:41:44;97529.34;;;9.93;100.00
75157;BME280;63736;50.076;8.198;2023-03-14T01:44:12;97531.84;;;9.95;100.00
75157;BME280;63736;50.076;8.198;2023-03-14T01:46:44;97525.50;;;9.96;100.00
75157;BME280;63736;50.076;8.198;2023-03-14T01:49:29;97529.84;;;9.97;100.00
75157;BME280;63736;50.076;8.198;2023-03-14T01:52:02;97519.34;;;9.95;100.00
75157;BME280;63736;50.076;8.198;2023-03-14T01:54:39;97525.50;;;9.96;100.00
75157;BME280;63736;50.076;8.198;2023-03-14T01:57:13;97520.16;;;9.96;100.00
75157;BME280;63736;50.076;8.198;2023-03-14T01:59:43;97497.81;;;9.97;100.00
75157;BME280;63736;50.076;8.198;2023-03-14T02:02:11;97487.16;;;9.97;100.00
75157;BME280;63736;50.076;8.198;2023-03-14T02:04:38;97482.66;;;9.97;100.00
75157;BME280;63736;50.076;8.198;2023-03-14T02:07:10;97467.50;;;9.98;100.00
75157;BME280;63736;50.076;8.198;2023-03-14T02:09:38;97471.34;;;9.95;100.00
75157;BME280;63736;50.076;8.198;2023-03-14T02:12:04;97476.00;;;9.93;100.00
75157;BME280;63736;50.076;8.198;2023-03-14T02:14:32;97469.84;;;9.92;100.00
75157;BME280;63736;50.076;8.198;2023-03-14T02:17:00;97472.53;;;9.92;100.00
75157;BME280;63736;50.076;8.198;2023-03-14T02:19:45;97471.66;;;9.92;100.00
75157;BME280;63736;50.076;8.198;2023-03-14T02:22:14;97465.53;;;9.91;100.00
75157;BME280;63736;50.076;8.198;2023-03-14T02:24:58;97450.34;;;9.92;100.00
75157;BME280;63736;50.076;8.198;2023-03-14T02:27:26;97446.19;;;9.89;100.00
75157;BME280;63736;50.076;8.198;2023-03-14T02:29:56;97440.84;;;9.89;100.00
75157;BME280;63736;50.076;8.198;2023-03-14T02:32:24;97444.38;;;9.90;100.00
75157;BME280;63736;50.076;8.198;2023-03-14T02:34:53;97435.69;;;9.88;100.00
75157;BME280;63736;50.076;8.198;2023-03-14T02:37:21;97434.03;;;9.87;100.00
75157;BME280;63736;50.076;8.198;2023-03-14T02:39:48;97437.53;;;9.87;100.00
75157;BME280;63736;50.076;8.198;2023-03-14T02:42:14;97455.22;;;9.88;100.00
75157;BME280;63736;50.076;8.198;2023-03-14T02:47:44;97452.53;;;9.88;100.00
75157;BME280;63736;50.076;8.198;2023-03-14T02:50:15;97456.84;;;9.89;100.00
75157;BME280;63736;50.076;8.198;2023-03-14T02:52:43;97451.50;;;9.89;100.00
75157;BME280;63736;50.076;8.198;2023-03-14T02:55:09;97457.69;;;9.90;100.00
75157;BME280;63736;50.076;8.198;2023-03-14T02:57:34;97457.69;;;9.90;100.00
75157;BME280;63736;50.076;8.198;2023-03-14T03:00:00;97464.84;;;9.89;100.00
75157;BME280;63736;50.076;8.198;2023-03-14T03:02:28;97457.69;;;9.90;100.00
75157;BME280;63736;50.076;8.198;2023-03-14T03:04:54;97456.69;;;9.91;100.00
75157;BME280;63736;50.076;8.198;2023-03-14T03:07:19;97457.69;;;9.90;100.00
75157;BME280;63736;50.076;8.198;2023-03-14T03:09:44;97460.38;;;9.90;100.00
75157;BME280;63736;50.076;8.198;2023-03-14T03:12:10;97468.38;;;9.90;100.00
75157;BME280;63736;50.076;8.198;2023-03-14T03:14:35;97456.69;;;9.91;100.00
75157;BME280;63736;50.076;8.198;2023-03-14T03:17:02;97461.00;;;9.92;100.00
75157;BME280;63736;50.076;8.198;2023-03-14T03:19:27;97446.84;;;9.91;100.00
75157;BME280;63736;50.076;8.198;2023-03-14T03:21:52;97445.00;;;9.92;100.00
75157;BME280;63736;50.076;8.198;2023-03-14T03:24:18;97439.03;;;9.90;100.00
75157;BME280;63736;50.076;8.198;2023-03-14T03:26:43;97443.69;;;9.88;100.00
75157;BME280;63736;50.076;8.198;2023-03-14T03:29:08;97443.69;;;9.88;100.00
75157;BME280;63736;50.076;8.198;2023-03-14T03:31:37;97429.72;;;9.86;100.00
75157;BME280;63736;50.076;8.198;2023-03-14T03:34:02;97447.72;;;9.84;100.00
75157;BME280;63736;50.076;8.198;2023-03-14T03:36:27;97437.25;;;9.82;100.00
75157;BME280;63736;50.076;8.198;2023-03-14T03:38:53;97434.09;;;9.79;100.00
75157;BME280;63736;50.076;8.198;2023-03-14T03:41:18;97441.09;;;9.80;100.00
75157;BME280;63736;50.076;8.198;2023-03-14T03:43:43;97428.56;;;9.80;100.00
75157;BME280;63736;50.076;8.198;2023-03-14T03:46:09;97426.75;;;9.81;100.00
75157;BME280;63736;50.076;8.198;2023-03-14T03:48:35;97415.25;;;9.80;100.00
75157;BME280;63736;50.076;8.198;2023-03-14T03:51:00;97404.56;;;9.80;100.00
75157;BME280;63736;50.076;8.198;2023-03-14T03:53:26;97395.94;;;9.78;100.00
75157;BME280;63736;50.076;8.198;2023-03-14T03:55:51;97402.09;;;9.79;100.00
75157;BME280;63736;50.076;8.198;2023-03-14T03:58:17;97382.63;;;9.78;100.00
75157;BME280;63736;50.076;8.198;2023-03-14T04:00:42;97396.75;;;9.79;100.00
75157;BME280;63736;50.076;8.198;2023-03-14T04:03:07;97394.75;;;9.81;100.00
75157;BME280;63736;50.076;8.198;2023-03-14T04:05:33;97387.75;;;9.80;100.00
75157;BME280;63736;50.076;8.198;2023-03-14T04:07:59;97382.44;;;9.80;100.00
75157;BME280;63736;50.076;8.198;2023-03-14T04:10:24;97383.44;;;9.79;100.00
75157;BME280;63736;50.076;8.198;2023-03-14T04:12:50;97377.09;;;9.80;100.00
75157;BME280;63736;50.076;8.198;2023-03-14T04:15:15;97385.28;;;9.78;100.00
75157;BME280;63736;50.076;8.198;2023-03-14T04:17:40;97375.44;;;9.79;100.00
75157;BME280;63736;50.076;8.198;2023-03-14T04:20:07;97386.09;;;9.79;100.00
75157;BME280;63736;50.076;8.198;2023-03-14T04:22:36;97388.75;;;9.79;100.00
75157;BME280;63736;50.076;8.198;2023-03-14T04:25:01;97390.63;;;9.78;100.00
75157;BME280;63736;50.076;8.198;2023-03-14T04:27:28;97388.09;;;9.76;100.00
75157;BME280;63736;50.076;8.198;2023-03-14T04:29:53;97383.44;;;9.79;100.00
75157;BME280;63736;50.076;8.198;2023-03-14T04:32:18;97369.44;;;9.76;100.00
75157;BME280;63736;50.076;8.198;2023-03-14T04:34:44;97363.47;;;9.74;100.00
75157;BME280;63736;50.076;8.198;2023-03-14T04:37:09;97357.94;;;9.76;100.00
75157;BME280;63736;50.076;8.198;2023-03-14T04:39:34;97352.81;;;9.74;100.00
75157;BME280;63736;50.076;8.198;2023-03-14T04:41:59;97358.13;;;9.74;100.00
75157;BME280;63736;50.076;8.198;2023-03-14T04:44:25;97356.47;;;9.73;100.00
75157;BME280;63736;50.076;8.198;2023-03-14T04:46:50;97350.31;;;9.73;100.00
75157;BME280;63736;50.076;8.198;2023-03-14T04:49:15;97344.13;;;9.72;100.00
75157;BME280;63736;50.076;8.198;2023-03-14T04:51:41;97348.66;;;9.72;100.00
75157;BME280;63736;50.076;8.198;2023-03-14T04:54:07;97338.81;;;9.72;100.00
75157;BME280;63736;50.076;8.198;2023-03-14T04:56:32;97332.47;;;9.73;100.00
75157;BME280;63736;50.076;8.198;2023-03-14T04:58:57;97332.47;;;9.73;100.00
75157;BME280;63736;50.076;8.198;2023-03-14T05:01:23;97330.63;;;9.74;100.00
75157;BME280;63736;50.076;8.198;2023-03-14T05:03:48;97331.47;;;9.74;100.00
75157;BME280;63736;50.076;8.198;2023-03-14T05:06:13;97329.63;;;9.75;100.00
75157;BME280;63736;50.076;8.198;2023-03-14T05:08:39;97333.28;;;9.74;100.00
75157;BME280;63736;50.076;8.198;2023-03-14T05:11:04;97337.44;;;9.76;100.00
75157;BME280;63736;50.076;8.198;2023-03-14T05:13:29;97342.97;;;9.75;100.00
75157;BME280;63736;50.076;8.198;2023-03-14T05:16:03;97338.28;;;9.77;100.00
75157;BME280;63736;50.076;8.198;2023-03-14T05:18:29;97333.28;;;9.74;100.00
75157;BME280;63736;50.076;8.198;2023-03-14T05:20:54;97336.81;;;9.74;100.00
75157;BME280;63736;50.076;8.198;2023-03-14T05:23:19;97337.63;;;9.75;100.00
75157;BME280;63736;50.076;8.198;2023-03-14T05:25:45;97333.97;;;9.76;100.00
75157;BME280;63736;50.076;8.198;2023-03-14T05:28:10;97337.44;;;9.76;100.00
75157;BME280;63736;50.076;8.198;2023-03-14T05:30:35;97340.97;;;9.77;100.00
75157;BME280;63736;50.076;8.198;2023-03-14T05:33:00;97341.59;;;9.79;100.00
75157;BME280;63736;50.076;8.198;2023-03-14T05:35:26;97342.44;;;9.80;100.00
75157;BME280;63736;50.076;8.198;2023-03-14T05:37:51;97349.59;;;9.79;100.00
75157;BME280;63736;50.076;8.198;2023-03-14T05:40:16;97337.94;;;9.80;100.00
75157;BME280;63736;50.076;8.198;2023-03-14T05:42:42;97335.25;;;9.80;100.00
75157;BME280;63736;50.076;8.198;2023-03-14T05:45:07;97317.88;;;9.84;100.00
75157;BME280;63736;50.076;8.198;2023-03-14T05:47:32;97317.06;;;9.84;100.00
75157;BME280;63736;50.076;8.198;2023-03-14T05:49:57;97323.06;;;9.86;100.00
75157;BME280;63736;50.076;8.198;2023-03-14T05:52:23;97318.75;;;9.85;100.00
75157;BME280;63736;50.076;8.198;2023-03-14T05:54:48;97316.06;;;9.85;100.00
75157;BME280;63736;50.076;8.198;2023-03-14T05:57:13;97324.88;;;9.85;100.00
75157;BME280;63736;50.076;8.198;2023-03-14T05:59:39;97320.41;;;9.86;100.00
75157;BME280;63736;50.076;8.198;2023-03-14T06:02:04;97317.75;;;9.86;100.00
75157;BME280;63736;50.076;8.198;2023-03-14T06:04:29;97312.56;;;9.84;100.00
75157;BME280;63736;50.076;8.198;2023-03-14T06:06:54;97312.56;;;9.84;100.00
75157;BME280;63736;50.076;8.198;2023-03-14T06:09:20;97304.75;;;9.83;100.00
75157;BME280;63736;50.076;8.198;2023-03-14T06:11:47;97303.06;;;9.82;100.00
75157;BME280;63736;50.076;8.198;2023-03-14T06:14:13;97298.78;;;9.81;100.00
75157;BME280;63736;50.076;8.198;2023-03-14T06:16:38;97293.59;;;9.79;100.00
75157;BME280;63736;50.076;8.198;2023-03-14T06:19:03;97293.78;;;9.78;100.00
75157;BME280;63736;50.076;8.198;2023-03-14T06:21:29;97290.94;;;9.79;100.00
75157;BME280;63736;50.076;8.198;2023-03-14T06:23:54;97294.44;;;9.80;100.00
75157;BME280;63736;50.076;8.198;2023-03-14T06:26:20;97296.13;;;9.81;100.00
75157;BME280;63736;50.076;8.198;2023-03-14T06:28:45;97291.78;;;9.80;100.00
75157;BME280;63736;50.076;8.198;2023-03-14T06:31:10;97282.78;;;9.81;100.00
75157;BME280;63736;50.076;8.198;2023-03-14T06:33:36;97289.13;;;9.80;100.00
75157;BME280;63736;50.076;8.198;2023-03-14T06:36:01;97293.25;;;9.82;100.00
75157;BME280;63736;50.076;8.198;2023-03-14T06:38:26;97296.56;;;9.84;100.00
75157;BME280;63736;50.076;8.198;2023-03-14T06:40:51;97297.41;;;9.85;100.00
75157;BME280;63736;50.076;8.198;2023-03-14T06:43:17;97296.56;;;9.84;100.00
75157;BME280;63736;50.076;8.198;2023-03-14T06:45:42;97304.56;;;9.84;100.00
75157;BME280;63736;50.076;8.198;2023-03-14T06:48:07;97291.22;;;9.84;100.00
75157;BME280;63736;50.076;8.198;2023-03-14T06:50:33;97290.88;;;9.87;100.00
75157;BME280;63736;50.076;8.198;2023-03-14T06:52:58;97294.03;;;9.91;100.00
75157;BME280;63736;50.076;8.198;2023-03-14T06:55:23;97293.84;;;9.92;100.00
75157;BME280;63736;50.076;8.198;2023-03-14T06:57:48;97290.00;;;9.95;100.00
75157;BME280;63736;50.076;8.198;2023-03-14T07:00:14;97289.63;;;9.98;100.00
75157;BME280;63736;50.076;8.198;2023-03-14T07:02:39;97279.59;;;10.00;100.00
75157;BME280;63736;50.076;8.198;2023-03-14T07:05:05;97291.09;;;10.01;100.00
75157;BME280;63736;50.076;8.198;2023-03-14T07:07:31;97286.56;;;10.01;100.00
75157;BME280;63736;50.076;8.198;2023-03-14T07:09:56;97283.56;;;10.04;100.00
75157;BME280;63736;50.076;8.198;2023-03-14T07:12:22;97285.38;;;10.04;100.00
75157;BME280;63736;50.076;8.198;2023-03-14T07:14:48;97285.22;;;10.05;100.00
75157;BME280;63736;50.076;8.198;2023-03-14T07:17:13;97292.19;;;10.06;100.00
75157;BME280;63736;50.076;8.198;2023-03-14T07:19:38;97291.00;;;10.09;100.00
75157;BME280;63736;50.076;8.198;2023-03-14T07:22:05;97295.00;;;10.13;100.00
75157;BME280;63736;50.076;8.198;2023-03-14T07:24:30;97289.66;;;10.13;100.00
75157;BME280;63736;50.076;8.198;2023-03-14T07:26:55;97302.81;;;10.15;100.00
75157;BME280;63736;50.076;8.198;2023-03-14T07:29:21;97302.63;;;10.16;100.00
75157;BME280;63736;50.076;8.198;2023-03-14T07:31:46;97302.63;;;10.16;100.00
75157;BME280;63736;50.076;8.198;2023-03-14T07:34:11;97298.78;;;10.19;100.00
75157;BME280;63736;50.076;8.198;2023-03-14T07:36:37;97297.75;;;10.20;100.00
75157;BME280;63736;50.076;8.198;2023-03-14T07:39:02;97308.44;;;10.20;100.00
75157;BME280;63736;50.076;8.198;2023-03-14T07:41:29;97306.41;;;10.22;100.00
75157;BME280;63736;50.076;8.198;2023-03-14T07:43:55;97311.72;;;10.22;100.00
75157;BME280;63736;50.076;8.198;2023-03-14T07:46:20;97313.22;;;10.24;100.00
75157;BME280;63736;50.076;8.198;2023-03-14T07:48:45;97310.53;;;10.24;100.00
75157;BME280;63736;50.076;8.198;2023-03-14T07:51:11;97328.22;;;10.25;100.00
75157;BME280;63736;50.076;8.198;2023-03-14T07:53:36;97311.84;;;10.29;100.00
75157;BME280;63736;50.076;8.198;2023-03-14T07:56:01;97309.81;;;10.31;100.00
75157;BME280;63736;50.076;8.198;2023-03-14T07:58:27;97309.81;;;10.31;100.00
75157;BME280;63736;50.076;8.198;2023-03-14T08:00:52;97321.50;;;10.30;100.00
75157;BME280;63736;50.076;8.198;2023-03-14T08:03:18;97313.88;;;10.27;100.00
75157;BME280;63736;50.076;8.198;2023-03-14T08:05:45;97321.50;;;10.30;100.00
75157;BME280;63736;50.076;8.198;2023-03-14T08:08:11;97319.13;;;10.35;100.00
75157;BME280;63736;50.076;8.198;2023-03-14T08:10:37;97306.56;;;10.44;100.00
75157;BME280;63736;50.076;8.198;2023-03-14T08:13:02;97317.81;;;10.54;100.00
75157;BME280;63736;50.076;8.198;2023-03-14T08:15:29;97313.00;;;10.64;100.00
75157;BME280;63736;50.076;8.198;2023-03-14T08:17:55;97307.56;;;10.72;100.00
75157;BME280;63736;50.076;8.198;2023-03-14T08:20:23;97316.31;;;10.81;100.00
75157;BME280;63736;50.076;8.198;2023-03-14T08:22:49;97315.59;;;10.87;100.00
75157;BME280;63736;50.076;8.198;2023-03-14T08:25:14;97313.81;;;10.95;100.00
75157;BME280;63736;50.076;8.198;2023-03-14T08:27:40;97317.59;;;11.00;100.00
75157;BME280;63736;50.076;8.198;2023-03-14T08:30:08;97316.41;;;11.03;100.00
75157;BME280;63736;50.076;8.198;2023-03-14T08:32:34;97319.97;;;11.10;100.00
75157;BME280;63736;50.076;8.198;2023-03-14T08:34:59;97317.38;;;11.17;100.00
75157;BME280;63736;50.076;8.198;2023-03-14T08:37:24;97319.25;;;11.16;100.00
75157;BME280;63736;50.076;8.198;2023-03-14T08:39:50;97320.63;;;11.12;100.00
75157;BME280;63736;50.076;8.198;2023-03-14T08:42:16;97316.41;;;11.03;100.00
75157;BME280;63736;50.076;8.198;2023-03-14T08:44:42;97318.16;;;10.96;100.00
75157;BME280;63736;50.076;8.198;2023-03-14T08:47:07;97316.50;;;10.95;100.00
75157;BME280;63736;50.076;8.198;2023-03-14T08:49:33;97305.44;;;10.98;100.00
75157;BME280;63736;50.076;8.198;2023-03-14T08:51:58;97313.91;;;11.01;100.00
75157;BME280;63736;50.076;8.198;2023-03-14T08:54:24;97308.00;;;11.06;100.00
75157;BME280;63736;50.076;8.198;2023-03-14T08:56:49;97317.88;;;11.05;100.00
75157;BME280;63736;50.076;8.198;2023-03-14T08:59:14;97307.75;;;11.01;100.00
75157;BME280;63736;50.076;8.198;2023-03-14T09:01:40;97318.44;;;11.01;100.00
75157;BME280;63736;50.076;8.198;2023-03-14T09:04:05;97328.03;;;10.95;100.00
75157;BME280;63736;50.076;8.198;2023-03-14T09:06:31;97326.28;;;10.87;100.00
75157;BME280;63736;50.076;8.198;2023-03-14T09:08:57;97325.34;;;10.80;100.00
75157;BME280;63736;50.076;8.198;2023-03-14T09:11:22;97325.06;;;10.75;100.00
75157;BME280;63736;50.076;8.198;2023-03-14T09:13:47;97322.59;;;10.73;100.00
75157;BME280;63736;50.076;8.198;2023-03-14T09:16:13;97320.09;;;10.72;100.00
75157;BME280;63736;50.076;8.198;2023-03-14T09:18:38;97315.78;;;10.71;100.00
75157;BME280;63736;50.076;8.198;2023-03-14T09:21:04;97316.59;;;10.71;100.00
75157;BME280;63736;50.076;8.198;2023-03-14T09:23:30;97321.59;;;10.74;100.00
75157;BME280;63736;50.076;8.198;2023-03-14T09:25:57;97323.88;;;10.78;100.00
75157;BME280;63736;50.076;8.198;2023-03-14T09:28:22;97322.88;;;10.79;100.00
75157;BME280;63736;50.076;8.198;2023-03-14T09:30:48;97322.94;;;10.85;100.00
75157;BME280;63736;50.076;8.198;2023-03-14T09:33:14;97330.03;;;10.93;100.00
75157;BME280;63736;50.076;8.198;2023-03-14T09:35:40;97331.59;;;11.02;100.00
75157;BME280;63736;50.076;8.198;2023-03-14T09:38:05;97341.06;;;11.05;100.00
75157;BME280;63736;50.076;8.198;2023-03-14T09:40:34;97334.72;;;11.06;100.00
75157;BME280;63736;50.076;8.198;2023-03-14T09:43:00;97336.94;;;11.02;100.00
75157;BME280;63736;50.076;8.198;2023-03-14T09:45:28;97326.44;;;11.01;100.00
75157;BME280;63736;50.076;8.198;2023-03-14T09:47:55;97338.97;;;11.00;100.00
75157;BME280;63736;50.076;8.198;2023-03-14T09:50:22;97333.06;;;11.05;100.00
75157;BME280;63736;50.076;8.198;2023-03-14T09:52:56;97346.06;;;11.08;100.00
75157;BME280;63736;50.076;8.198;2023-03-14T09:55:22;97338.47;;;11.12;100.00
75157;BME280;63736;50.076;8.198;2023-03-14T09:57:55;97334.41;;;11.16;100.00
75157;BME280;63736;50.076;8.198;2023-03-14T10:00:23;97324.19;;;11.19;100.00
75157;BME280;63736;50.076;8.198;2023-03-14T10:03:21;97327.78;;;11.27;100.00
75157;BME280;63736;50.076;8.198;2023-03-14T10:05:46;97321.69;;;11.33;100.00
75157;BME280;63736;50.076;8.198;2023-03-14T10:08:13;97314.31;;;11.35;100.00
75157;BME280;63736;50.076;8.198;2023-03-14T10:10:39;97319.84;;;11.33;100.00
75157;BME280;63736;50.076;8.198;2023-03-14T10:15:37;97322.78;;;11.38;100.00
75157;BME280;63736;50.076;8.198;2023-03-14T10:18:05;97313.75;;;11.39;100.00
75157;BME280;63736;50.076;8.198;2023-03-14T10:20:40;97318.91;;;11.41;100.00
75157;BME280;63736;50.076;8.198;2023-03-14T10:25:43;97317.13;;;11.48;100.00
75157;BME280;63736;50.076;8.198;2023-03-14T10:28:27;97317.22;;;11.55;100.00
75157;BME280;63736;50.076;8.198;2023-03-14T10:30:54;97326.50;;;11.59;100.00
75157;BME280;63736;50.076;8.198;2023-03-14T10:33:22;97322.63;;;11.62;100.00
75157;BME280;63736;50.076;8.198;2023-03-14T10:35:56;97313.19;;;11.66;100.00
75157;BME280;63736;50.076;8.198;2023-03-14T10:38:24;97323.69;;;11.67;100.00
75157;BME280;63736;50.076;8.198;2023-03-14T10:40:52;97318.16;;;11.69;100.00
75157;BME280;63736;50.076;8.198;2023-03-14T10:43:22;97326.63;;;11.72;100.00
75157;BME280;63736;50.076;8.198;2023-03-14T10:48:38;97326.75;;;11.64;100.00
75157;BME280;63736;50.076;8.198;2023-03-14T10:51:10;97331.19;;;11.57;100.00
75157;BME280;63736;50.076;8.198;2023-03-14T10:53:46;97331.59;;;11.54;100.00
75157;BME280;63736;50.076;8.198;2023-03-14T10:56:19;97328.19;;;11.45;100.00
75157;BME280;63736;50.076;8.198;2023-03-14T10:58:47;97332.28;;;11.41;100.00
75157;BME280;63736;50.076;8.198;2023-03-14T11:04:25;97329.00;;;11.46;100.00
75157;BME280;63736;50.076;8.198;2023-03-14T11:07:09;97335.28;;;11.53;100.00
75157;BME280;63736;50.076;8.198;2023-03-14T11:09:57;97333.13;;;11.63;100.00
75157;BME280;63736;50.076;8.198;2023-03-14T11:15:30;97330.88;;;11.88;100.00
75157;BME280;63736;50.076;8.198;2023-03-14T11:18:18;97329.66;;;12.06;100.00
75157;BME280;63736;50.076;8.198;2023-03-14T11:20:56;97338.47;;;12.28;100.00
75157;BME280;63736;50.076;8.198;2023-03-14T11:23:31;97346.97;;;12.32;100.00
75157;BME280;63736;50.076;8.198;2023-03-14T11:26:03;97347.31;;;12.29;100.00
75157;BME280;63736;50.076;8.198;2023-03-14T11:28:39;97345.91;;;12.33;100.00
75157;BME280;63736;50.076;8.198;2023-03-14T11:31:28;97358.28;;;12.34;100.00
75157;BME280;63736;50.076;8.198;2023-03-14T11:34:10;97361.16;;;12.32;100.00
75157;BME280;63736;50.076;8.198;2023-03-14T11:36:47;97370.81;;;12.27;100.00
75157;BME280;63736;50.076;8.198;2023-03-14T11:39:16;97368.25;;;12.18;100.00
75157;BME280;63736;50.076;8.198;2023-03-14T11:41:52;97369.66;;;12.14;100.00
75157;BME280;63736;50.076;8.198;2023-03-14T11:44:30;97387.31;;;12.09;100.00
75157;BME280;63736;50.076;8.198;2023-03-14T11:47:00;97387.06;;;12.03;100.00
75157;BME280;63736;50.076;8.198;2023-03-14T11:49:32;97446.47;;;11.99;100.00
75157;BME280;63736;50.076;8.198;2023-03-14T11:52:04;97431.19;;;11.78;100.00
75157;BME280;63736;50.076;8.198;2023-03-14T11:54:35;97447.28;;;11.63;100.00
75157;BME280;63736;50.076;8.198;2023-03-14T11:57:14;97464.16;;;11.48;100.00
75157;BME280;63736;50.076;8.198;2023-03-14T11:59:55;97480.47;;;11.23;100.00
75157;BME280;63736;50.076;8.198;2023-03-14T12:05:31;97512.50;;;10.94;100.00
75157;BME280;63736;50.076;8.198;2023-03-14T12:10:38;97522.03;;;11.11;100.00
75157;BME280;63736;50.076;8.198;2023-03-14T12:13:08;97553.91;;;11.13;100.00
75157;BME280;63736;50.076;8.198;2023-03-14T12:15:39;97571.50;;;11.07;100.00
75157;BME280;63736;50.076;8.198;2023-03-14T12:18:29;97584.28;;;10.97;100.00
75157;BME280;63736;50.076;8.198;2023-03-14T12:21:01;97593.69;;;11.07;100.00
75157;BME280;63736;50.076;8.198;2023-03-14T12:23:35;97600.38;;;11.27;100.00
75157;BME280;63736;50.076;8.198;2023-03-14T12:26:27;97590.19;;;11.45;100.00
75157;BME280;63736;50.076;8.198;2023-03-14T12:42:21;97646.75;;;10.64;100.00
75157;BME280;63736;50.076;8.198;2023-03-14T12:48:00;97680.81;;;10.62;100.00
75157;BME280;63736;50.076;8.198;2023-03-14T12:50:41;97700.78;;;10.66;100.00
75157;BME280;63736;50.076;8.198;2023-03-14T12:53:10;97719.50;;;10.66;100.00
75157;BME280;63736;50.076;8.198;2023-03-14T13:01:20;97735.97;;;10.38;100.00
75157;BME280;63736;50.076;8.198;2023-03-14T13:03:57;97735.28;;;10.36;100.00
75157;BME280;63736;50.076;8.198;2023-03-14T13:06:49;97752.81;;;10.31;100.00
75157;BME280;63736;50.076;8.198;2023-03-14T13:12:14;97759.81;;;10.40;98.55
75157;BME280;63736;50.076;8.198;2023-03-14T13:14:45;97758.81;;;10.41;98.32
75157;BME280;63736;50.076;8.198;2023-03-14T13:17:12;97773.16;;;10.48;100.00
75157;BME280;63736;50.076;8.198;2023-03-14T13:19:38;97784.91;;;10.70;100.00
75157;BME280;63736;50.076;8.198;2023-03-14T13:22:16;97794.66;;;10.95;100.00
75157;BME280;63736;50.076;8.198;2023-03-14T13:24:42;97786.38;;;11.13;97.68
75157;BME280;63736;50.076;8.198;2023-03-14T13:27:17;97796.31;;;11.27;97.87
75157;BME280;63736;50.076;8.198;2023-03-14T13:29:43;97802.09;;;11.39;94.64
75157;BME280;63736;50.076;8.198;2023-03-14T13:32:21;97801.00;;;11.56;93.25
75157;BME280;63736;50.076;8.198;2023-03-14T13:34:47;97811.69;;;11.56;89.02
75157;BME280;63736;50.076;8.198;2023-03-14T13:37:21;97848.50;;;11.46;89.97
75157;BME280;63736;50.076;8.198;2023-03-14T13:39:56;97835.03;;;11.31;89.46
75157;BME280;63736;50.076;8.198;2023-03-14T13:42:28;97859.66;;;11.18;89.12
75157;BME280;63736;50.076;8.198;2023-03-14T13:44:55;97861.25;;;11.04;90.43
75157;BME280;63736;50.076;8.198;2023-03-14T13:47:23;97876.97;;;10.99;97.37